createdAt,value
2018-08-03T00:00:10.893Z,0
2018-08-03T00:01:20.479Z,0
2018-08-03T00:02:30.328Z,0
2018-08-03T00:03:40.448Z,0
2018-08-03T00:04:50.295Z,0
2018-08-03T00:05:59.971Z,0
2018-08-03T00:07:09.544Z,0
2018-08-03T00:08:19.384Z,0
2018-08-03T00:09:28.961Z,0
2018-08-03T00:10:38.540Z,0
2018-08-03T00:11:48.114Z,0
2018-08-03T00:12:57.420Z,0
2018-08-03T00:14:06.999Z,0
2018-08-03T00:15:17.117Z,0
2018-08-03T00:16:27.228Z,0
2018-08-03T00:17:37.072Z,0
2018-08-03T00:18:46.923Z,0
2018-08-03T00:19:56.789Z,0
2018-08-03T00:21:06.636Z,0
2018-08-03T00:22:16.213Z,0
2018-08-03T00:23:25.789Z,0
2018-08-03T00:24:35.907Z,0
2018-08-03T00:25:45.756Z,0
2018-08-03T00:26:55.599Z,0
2018-08-03T00:28:05.179Z,0
2018-08-03T00:29:14.817Z,0
2018-08-03T00:30:24.675Z,0
2018-08-03T00:31:33.978Z,0
2018-08-03T00:32:43.830Z,0
2018-08-03T00:33:53.406Z,0
2018-08-03T00:35:03.253Z,0
2018-08-03T00:36:12.565Z,0
2018-08-03T00:37:22.687Z,0
2018-08-03T00:38:31.990Z,0
2018-08-03T00:39:41.357Z,0
2018-08-03T00:40:50.935Z,0
2018-08-03T00:42:00.776Z,0
2018-08-03T00:43:10.627Z,0
2018-08-03T00:44:20.205Z,0
2018-08-03T00:45:30.045Z,0
2018-08-03T00:46:39.622Z,0
2018-08-03T00:47:49.468Z,0
2018-08-03T00:48:59.042Z,0
2018-08-03T00:50:08.887Z,0
2018-08-03T00:51:18.743Z,0
2018-08-03T00:52:28.323Z,0
2018-08-03T00:53:38.173Z,0
2018-08-03T00:54:47.481Z,0
2018-08-03T00:55:56.782Z,0
2018-08-03T00:57:06.088Z,0
2018-08-03T00:58:15.659Z,0
2018-08-03T00:59:25.239Z,0
2018-08-03T01:00:34.819Z,0
2018-08-03T01:01:44.661Z,0
2018-08-03T01:02:54.510Z,0
2018-08-03T01:04:04.351Z,0
2018-08-03T01:05:13.933Z,0
2018-08-03T01:06:23.507Z,0
2018-08-03T01:07:33.083Z,0
2018-08-03T01:08:42.657Z,0
2018-08-03T01:09:51.962Z,0
2018-08-03T01:11:01.547Z,0
2018-08-03T01:12:11.731Z,0
2018-08-03T01:13:21.579Z,0
2018-08-03T01:14:30.613Z,0
2018-08-03T01:15:39.915Z,0
2018-08-03T01:16:49.489Z,0
2018-08-03T01:17:58.798Z,0
2018-08-03T01:19:08.646Z,0
2018-08-03T01:20:18.760Z,0
2018-08-03T01:21:28.336Z,0
2018-08-03T01:22:37.906Z,0
2018-08-03T01:23:48.025Z,0
2018-08-03T01:24:57.864Z,0
2018-08-03T01:26:07.707Z,0
2018-08-03T01:27:17.822Z,0
2018-08-03T01:28:27.133Z,0
2018-08-03T01:29:36.438Z,0
2018-08-03T01:30:46.011Z,0
2018-08-03T01:31:55.859Z,0
2018-08-03T01:33:05.161Z,0
2018-08-03T01:34:15.005Z,0
2018-08-03T01:35:24.851Z,0
2018-08-03T01:36:34.969Z,0
2018-08-03T01:37:44.354Z,0
2018-08-03T01:38:53.967Z,0
2018-08-03T01:40:03.273Z,0
2018-08-03T01:41:13.120Z,0
2018-08-03T01:42:22.977Z,0
2018-08-03T01:43:32.557Z,0
2018-08-03T01:44:41.594Z,0
2018-08-03T01:45:51.436Z,0
2018-08-03T01:47:01.277Z,0
2018-08-03T01:48:10.855Z,0
2018-08-03T01:49:20.704Z,0
2018-08-03T01:50:30.278Z,0
2018-08-03T01:51:39.854Z,0
2018-08-03T01:52:49.965Z,0
2018-08-03T01:53:59.819Z,0
2018-08-03T01:55:09.670Z,0
2018-08-03T01:56:19.800Z,0
2018-08-03T01:57:29.641Z,0
2018-08-03T01:58:39.489Z,0
2018-08-03T01:59:49.611Z,0
2018-08-03T02:00:58.923Z,0
2018-08-03T02:02:09.059Z,0
2018-08-03T02:03:18.756Z,0
2018-08-03T02:04:28.392Z,0
2018-08-03T02:05:37.695Z,0
2018-08-03T02:06:47.009Z,0
2018-08-03T02:07:56.856Z,0
2018-08-03T02:09:06.160Z,0
2018-08-03T02:10:15.748Z,0
2018-08-03T02:11:25.591Z,0
2018-08-03T02:12:35.441Z,0
2018-08-03T02:13:45.288Z,0
2018-08-03T02:14:55.137Z,0
2018-08-03T02:16:04.175Z,0
2018-08-03T02:17:13.755Z,0
2018-08-03T02:18:23.067Z,0
2018-08-03T02:19:32.640Z,0
2018-08-03T02:20:42.212Z,0
2018-08-03T02:21:51.527Z,0
2018-08-03T02:23:01.100Z,0
2018-08-03T02:24:11.214Z,0
2018-08-03T02:25:20.848Z,0
2018-08-03T02:26:30.462Z,0
2018-08-03T02:27:40.311Z,0
2018-08-03T02:28:49.891Z,0
2018-08-03T02:29:59.479Z,0
2018-08-03T02:31:08.515Z,0
2018-08-03T02:32:18.388Z,0
2018-08-03T02:33:28.246Z,0
2018-08-03T02:34:38.098Z,0
2018-08-03T02:35:47.400Z,0
2018-08-03T02:36:56.431Z,0
2018-08-03T02:38:06.010Z,0
2018-08-03T02:39:15.582Z,0
2018-08-03T02:40:25.432Z,0
2018-08-03T02:41:35.285Z,0
2018-08-03T02:42:45.152Z,0
2018-08-03T02:43:55.000Z,0
2018-08-03T02:45:04.850Z,0
2018-08-03T02:46:14.432Z,0
2018-08-03T02:47:24.554Z,0
2018-08-03T02:48:34.411Z,0
2018-08-03T02:49:44.541Z,0
2018-08-03T02:50:54.658Z,0
2018-08-03T02:52:03.969Z,0
2018-08-03T02:53:13.812Z,0
2018-08-03T02:54:23.654Z,0
2018-08-03T02:55:32.957Z,0
2018-08-03T02:56:42.531Z,0
2018-08-03T02:57:51.832Z,0
2018-08-03T02:59:01.952Z,0
2018-08-03T03:00:11.256Z,0
2018-08-03T03:01:21.097Z,0
2018-08-03T03:02:30.940Z,0
2018-08-03T03:03:40.802Z,0
2018-08-03T03:04:50.641Z,0
2018-08-03T03:06:00.485Z,0
2018-08-03T03:07:10.597Z,0
2018-08-03T03:08:20.447Z,0
2018-08-03T03:09:30.295Z,0
2018-08-03T03:10:40.142Z,4
2018-08-03T03:11:49.449Z,4
2018-08-03T03:12:59.558Z,0
2018-08-03T03:14:09.401Z,4
2018-08-03T03:15:18.974Z,4
2018-08-03T03:16:28.549Z,4
2018-08-03T03:17:38.398Z,4
2018-08-03T03:18:48.238Z,4
2018-08-03T03:19:57.810Z,8
2018-08-03T03:21:06.842Z,12
2018-08-03T03:22:16.961Z,12
2018-08-03T03:23:27.081Z,12
2018-08-03T03:24:36.653Z,16
2018-08-03T03:25:46.495Z,20
2018-08-03T03:26:56.605Z,20
2018-08-03T03:28:06.448Z,24
2018-08-03T03:29:16.350Z,28
2018-08-03T03:30:26.482Z,32
2018-08-03T03:31:36.347Z,36
2018-08-03T03:32:46.090Z,40
2018-08-03T03:33:55.941Z,48
2018-08-03T03:35:05.518Z,52
2018-08-03T03:36:15.627Z,60
2018-08-03T03:37:24.961Z,64
2018-08-03T03:38:34.504Z,76
2018-08-03T03:39:44.078Z,84
2018-08-03T03:40:54.186Z,92
2018-08-03T03:42:03.491Z,104
2018-08-03T03:43:13.604Z,112
2018-08-03T03:44:23.494Z,124
2018-08-03T03:45:33.595Z,136
2018-08-03T03:46:43.598Z,152
2018-08-03T03:47:53.448Z,164
2018-08-03T03:49:02.753Z,176
2018-08-03T03:50:12.334Z,188
2018-08-03T03:51:21.382Z,204
2018-08-03T03:52:30.693Z,220
2018-08-03T03:53:40.262Z,232
2018-08-03T03:54:49.300Z,248
2018-08-03T03:55:58.867Z,268
2018-08-03T03:57:08.706Z,284
2018-08-03T03:58:18.283Z,300
2018-08-03T03:59:28.016Z,320
2018-08-03T04:00:37.595Z,340
2018-08-03T04:01:46.906Z,356
2018-08-03T04:02:56.529Z,372
2018-08-03T04:04:06.113Z,392
2018-08-03T04:05:15.700Z,412
2018-08-03T04:06:25.279Z,432
2018-08-03T04:07:35.126Z,448
2018-08-03T04:08:45.256Z,472
2018-08-03T04:09:54.823Z,488
2018-08-03T04:11:05.306Z,512
2018-08-03T04:12:15.072Z,532
2018-08-03T04:13:25.281Z,552
2018-08-03T04:14:34.865Z,568
2018-08-03T04:15:45.045Z,592
2018-08-03T04:16:55.162Z,608
2018-08-03T04:18:04.197Z,632
2018-08-03T04:19:14.308Z,652
2018-08-03T04:20:24.163Z,672
2018-08-03T04:21:34.004Z,692
2018-08-03T04:22:43.575Z,712
2018-08-03T04:23:52.886Z,732
2018-08-03T04:25:02.467Z,752
2018-08-03T04:26:12.043Z,768
2018-08-03T04:27:22.161Z,788
2018-08-03T04:28:31.740Z,804
2018-08-03T04:29:41.602Z,824
2018-08-03T04:30:51.448Z,844
2018-08-03T04:32:01.291Z,864
2018-08-03T04:33:10.877Z,880
2018-08-03T04:34:20.457Z,896
2018-08-03T04:35:30.028Z,916
2018-08-03T04:36:40.138Z,936
2018-08-03T04:37:49.442Z,952
2018-08-03T04:38:59.380Z,968
2018-08-03T04:40:09.305Z,988
2018-08-03T04:41:19.146Z,1004
2018-08-03T04:42:29.613Z,1020
2018-08-03T04:43:39.828Z,1036
2018-08-03T04:44:49.410Z,1056
2018-08-03T04:45:59.260Z,1072
2018-08-03T04:47:09.124Z,1084
2018-08-03T04:48:18.967Z,1100
2018-08-03T04:49:28.549Z,1116
2018-08-03T04:50:38.676Z,1132
2018-08-03T04:51:48.790Z,1144
2018-08-03T04:52:57.825Z,1160
2018-08-03T04:54:06.867Z,1176
2018-08-03T04:55:16.170Z,1188
2018-08-03T04:56:26.024Z,1204
2018-08-03T04:57:35.873Z,1220
2018-08-03T04:58:44.900Z,1232
2018-08-03T04:59:54.754Z,1248
2018-08-03T05:01:04.601Z,1260
2018-08-03T05:02:14.462Z,1276
2018-08-03T05:03:23.513Z,1292
2018-08-03T05:04:33.629Z,1300
2018-08-03T05:05:42.659Z,1312
2018-08-03T05:06:52.232Z,1324
2018-08-03T05:08:02.154Z,1336
2018-08-03T05:09:11.735Z,1344
2018-08-03T05:10:21.854Z,1360
2018-08-03T05:11:31.431Z,1368
2018-08-03T05:12:41.009Z,1376
2018-08-03T05:13:51.120Z,1392
2018-08-03T05:15:00.699Z,1400
2018-08-03T05:16:10.811Z,1412
2018-08-03T05:17:20.393Z,1424
2018-08-03T05:18:30.246Z,1432
2018-08-03T05:19:39.869Z,1444
2018-08-03T05:20:49.174Z,1456
2018-08-03T05:21:59.022Z,1464
2018-08-03T05:23:09.144Z,1476
2018-08-03T05:24:18.922Z,1484
2018-08-03T05:25:29.214Z,1492
2018-08-03T05:26:39.336Z,1504
2018-08-03T05:27:49.188Z,1516
2018-08-03T05:28:59.052Z,1524
2018-08-03T05:30:08.638Z,1536
2018-08-03T05:31:18.534Z,1544
2018-08-03T05:32:27.843Z,1552
2018-08-03T05:33:37.416Z,1564
2018-08-03T05:34:46.999Z,1572
2018-08-03T05:35:57.069Z,1580
2018-08-03T05:37:07.097Z,1592
2018-08-03T05:38:16.946Z,1600
2018-08-03T05:39:26.800Z,1612
2018-08-03T05:40:36.386Z,1616
2018-08-03T05:41:45.693Z,1624
2018-08-03T05:42:55.051Z,1632
2018-08-03T05:44:04.628Z,1640
2018-08-03T05:45:14.476Z,1648
2018-08-03T05:46:24.319Z,1656
2018-08-03T05:47:34.170Z,1664
2018-08-03T05:48:43.744Z,1672
2018-08-03T05:49:53.321Z,1680
2018-08-03T05:51:03.451Z,1688
2018-08-03T05:52:12.758Z,1696
2018-08-03T05:53:22.659Z,1700
2018-08-03T05:54:32.505Z,1708
2018-08-03T05:55:42.626Z,1716
2018-08-03T05:56:52.476Z,1724
2018-08-03T05:58:01.961Z,1732
2018-08-03T05:59:11.864Z,1740
2018-08-03T06:00:21.175Z,1744
2018-08-03T06:01:31.015Z,1748
2018-08-03T06:02:40.588Z,1756
2018-08-03T06:03:50.735Z,1768
2018-08-03T06:05:00.568Z,1776
2018-08-03T06:06:10.147Z,1784
2018-08-03T06:07:19.454Z,1796
2018-08-03T06:08:29.029Z,1804
2018-08-03T06:09:39.062Z,1816
2018-08-03T06:10:49.061Z,1820
2018-08-03T06:11:58.101Z,1824
2018-08-03T06:13:07.591Z,1828
2018-08-03T06:14:17.706Z,1832
2018-08-03T06:15:27.276Z,1840
2018-08-03T06:16:37.391Z,1844
2018-08-03T06:17:47.506Z,1852
2018-08-03T06:18:57.351Z,1856
2018-08-03T06:20:06.931Z,1868
2018-08-03T06:21:15.967Z,1876
2018-08-03T06:22:25.809Z,1884
2018-08-03T06:23:35.698Z,1896
2018-08-03T06:24:45.024Z,1900
2018-08-03T06:25:55.141Z,1912
2018-08-03T06:27:04.997Z,1920
2018-08-03T06:28:14.031Z,1928
2018-08-03T06:29:23.359Z,1940
2018-08-03T06:30:33.229Z,1948
2018-08-03T06:31:42.534Z,1952
2018-08-03T06:32:52.114Z,1960
2018-08-03T06:34:01.972Z,1968
2018-08-03T06:35:11.314Z,1972
2018-08-03T06:36:20.895Z,1980
2018-08-03T06:37:30.474Z,1988
2018-08-03T06:38:40.059Z,1996
2018-08-03T06:39:49.374Z,2000
2018-08-03T06:40:59.492Z,2004
2018-08-03T06:42:09.071Z,2008
2018-08-03T06:43:19.192Z,2012
2018-08-03T06:44:28.499Z,2024
2018-08-03T06:45:38.621Z,2024
2018-08-03T06:46:47.656Z,2032
2018-08-03T06:47:57.237Z,2044
2018-08-03T06:49:07.091Z,2052
2018-08-03T06:50:17.210Z,2060
2018-08-03T06:51:27.053Z,2068
2018-08-03T06:52:36.623Z,2076
2018-08-03T06:53:46.894Z,2084
2018-08-03T06:54:57.121Z,2088
2018-08-03T06:56:06.435Z,2092
2018-08-03T06:57:16.303Z,2092
2018-08-03T06:58:26.167Z,2096
2018-08-03T06:59:35.480Z,2096
2018-08-03T07:00:45.074Z,2104
2018-08-03T07:01:54.662Z,2108
2018-08-03T07:03:04.211Z,2112
2018-08-03T07:04:13.790Z,2112
2018-08-03T07:05:23.097Z,2116
2018-08-03T07:06:32.945Z,2120
2018-08-03T07:07:43.064Z,2124
2018-08-03T07:08:52.639Z,2124
2018-08-03T07:10:02.487Z,2128
2018-08-03T07:11:12.611Z,2132
2018-08-03T07:12:22.750Z,2128
2018-08-03T07:13:32.064Z,2132
2018-08-03T07:14:42.407Z,2140
2018-08-03T07:15:52.002Z,2140
2018-08-03T07:17:01.572Z,2144
2018-08-03T07:18:11.149Z,2152
2018-08-03T07:19:21.007Z,2152
2018-08-03T07:20:31.611Z,2156
2018-08-03T07:21:40.572Z,2156
2018-08-03T07:22:50.146Z,2164
2018-08-03T07:23:59.727Z,2168
2018-08-03T07:25:09.861Z,2176
2018-08-03T07:26:19.167Z,2184
2018-08-03T07:27:29.014Z,2196
2018-08-03T07:28:38.324Z,2200
2018-08-03T07:29:47.637Z,2204
2018-08-03T07:30:57.492Z,2212
2018-08-03T07:32:07.338Z,2220
2018-08-03T07:33:17.457Z,2228
2018-08-03T07:34:27.584Z,2240
2018-08-03T07:35:37.165Z,2248
2018-08-03T07:36:47.301Z,2256
2018-08-03T07:37:56.883Z,2264
2018-08-03T07:39:06.452Z,2268
2018-08-03T07:40:16.112Z,2276
2018-08-03T07:41:26.239Z,2284
2018-08-03T07:42:35.547Z,2292
2018-08-03T07:43:44.852Z,2300
2018-08-03T07:44:55.042Z,2308
2018-08-03T07:46:04.700Z,2316
2018-08-03T07:47:14.551Z,2324
2018-08-03T07:48:24.392Z,2336
2018-08-03T07:49:34.238Z,2340
2018-08-03T07:50:43.542Z,2348
2018-08-03T07:51:53.127Z,2352
2018-08-03T07:53:02.439Z,2360
2018-08-03T07:54:12.554Z,2364
2018-08-03T07:55:22.133Z,2372
2018-08-03T07:56:31.438Z,2380
2018-08-03T07:57:40.743Z,2384
2018-08-03T07:58:50.593Z,2384
2018-08-03T07:59:59.900Z,2392
2018-08-03T08:01:09.474Z,2400
2018-08-03T08:02:19.332Z,2412
2018-08-03T08:03:29.191Z,2416
2018-08-03T08:04:39.039Z,2420
2018-08-03T08:05:48.623Z,2424
2018-08-03T08:06:58.219Z,2424
2018-08-03T08:08:07.924Z,2432
2018-08-03T08:09:18.044Z,2440
2018-08-03T08:10:27.621Z,2448
2018-08-03T08:11:37.205Z,2452
2018-08-03T08:12:47.088Z,2456
2018-08-03T08:13:56.942Z,2468
2018-08-03T08:15:07.193Z,2476
2018-08-03T08:16:16.804Z,2484
2018-08-03T08:17:26.650Z,2496
2018-08-03T08:18:36.227Z,2504
2018-08-03T08:19:46.344Z,2512
2018-08-03T08:20:56.203Z,2516
2018-08-03T08:22:05.512Z,2520
2018-08-03T08:23:14.822Z,2520
2018-08-03T08:24:24.672Z,2520
2018-08-03T08:25:34.258Z,2524
2018-08-03T08:26:44.376Z,2532
2018-08-03T08:27:54.497Z,2536
2018-08-03T08:29:04.085Z,2544
2018-08-03T08:30:13.393Z,2552
2018-08-03T08:31:23.272Z,2560
2018-08-03T08:32:33.436Z,2572
2018-08-03T08:33:43.564Z,2580
2018-08-03T08:34:53.681Z,2592
2018-08-03T08:36:03.256Z,2604
2018-08-03T08:37:12.838Z,2608
2018-08-03T08:38:22.422Z,2616
2018-08-03T08:39:31.727Z,2624
2018-08-03T08:40:41.845Z,2636
2018-08-03T08:41:51.153Z,2652
2018-08-03T08:43:00.997Z,2664
2018-08-03T08:44:10.309Z,2680
2018-08-03T08:45:19.342Z,2692
2018-08-03T08:46:28.653Z,2700
2018-08-03T08:47:38.513Z,2704
2018-08-03T08:48:48.357Z,2700
2018-08-03T08:49:57.664Z,2704
2018-08-03T08:51:06.701Z,2720
2018-08-03T08:52:16.820Z,2732
2018-08-03T08:53:27.182Z,2748
2018-08-03T08:54:37.146Z,2764
2018-08-03T08:55:46.738Z,2784
2018-08-03T08:56:56.063Z,2800
2018-08-03T08:58:05.911Z,2824
2018-08-03T08:59:15.215Z,2848
2018-08-03T09:00:24.794Z,2852
2018-08-03T09:01:34.103Z,2864
2018-08-03T09:02:43.676Z,2880
2018-08-03T09:03:53.541Z,2896
2018-08-03T09:05:03.657Z,2912
2018-08-03T09:06:12.700Z,2928
2018-08-03T09:07:22.887Z,2936
2018-08-03T09:08:32.152Z,2944
2018-08-03T09:09:41.726Z,2952
2018-08-03T09:10:51.304Z,2960
2018-08-03T09:12:00.622Z,2976
2018-08-03T09:13:10.598Z,2992
2018-08-03T09:14:20.317Z,3008
2018-08-03T09:15:30.170Z,3020
2018-08-03T09:16:40.297Z,3032
2018-08-03T09:17:50.151Z,3052
2018-08-03T09:18:59.479Z,3068
2018-08-03T09:20:08.791Z,3080
2018-08-03T09:21:18.101Z,3100
2018-08-03T09:22:27.949Z,3116
2018-08-03T09:23:37.796Z,3136
2018-08-03T09:24:47.904Z,3152
2018-08-03T09:25:58.022Z,3160
2018-08-03T09:27:07.947Z,3168
2018-08-03T09:28:17.807Z,3180
2018-08-03T09:29:27.681Z,3200
2018-08-03T09:30:37.578Z,3204
2018-08-03T09:31:47.169Z,3224
2018-08-03T09:32:56.474Z,3248
2018-08-03T09:34:05.779Z,3284
2018-08-03T09:35:15.353Z,3324
2018-08-03T09:36:25.254Z,3356
2018-08-03T09:37:35.208Z,3372
2018-08-03T09:38:44.737Z,3364
2018-08-03T09:39:53.782Z,3372
2018-08-03T09:41:03.641Z,3388
2018-08-03T09:42:13.494Z,3408
2018-08-03T09:43:23.077Z,3432
2018-08-03T09:44:32.665Z,3480
2018-08-03T09:45:42.515Z,3520
2018-08-03T09:46:52.362Z,3548
2018-08-03T09:48:01.997Z,3588
2018-08-03T09:49:12.008Z,3612
2018-08-03T09:50:21.644Z,3640
2018-08-03T09:51:30.687Z,3672
2018-08-03T09:52:40.542Z,3740
2018-08-03T09:53:50.397Z,3816
2018-08-03T09:55:00.515Z,3888
2018-08-03T09:56:10.097Z,3976
2018-08-03T09:57:19.724Z,4056
2018-08-03T09:58:29.579Z,4100
2018-08-03T09:59:39.431Z,4072
2018-08-03T10:00:49.289Z,4036
2018-08-03T10:01:59.258Z,4024
2018-08-03T10:03:08.568Z,4020
2018-08-03T10:04:18.427Z,4016
2018-08-03T10:05:28.004Z,4036
2018-08-03T10:06:37.857Z,4080
2018-08-03T10:07:47.175Z,4104
2018-08-03T10:08:56.486Z,4128
2018-08-03T10:10:06.337Z,4144
2018-08-03T10:11:16.188Z,4164
2018-08-03T10:12:26.367Z,4176
2018-08-03T10:13:35.949Z,4168
2018-08-03T10:14:45.800Z,3984
2018-08-03T10:15:55.926Z,4196
2018-08-03T10:17:05.832Z,4388
2018-08-03T10:18:14.872Z,4648
2018-08-03T10:19:24.992Z,4804
2018-08-03T10:20:34.300Z,5012
2018-08-03T10:21:44.163Z,5212
2018-08-03T10:22:54.014Z,5456
2018-08-03T10:24:03.869Z,6084
2018-08-03T10:25:13.720Z,6252
2018-08-03T10:26:23.027Z,6168
2018-08-03T10:27:32.338Z,5928
2018-08-03T10:28:42.187Z,5808
2018-08-03T10:29:52.300Z,5864
2018-08-03T10:31:02.150Z,5936
2018-08-03T10:32:11.465Z,6204
2018-08-03T10:33:21.048Z,6592
2018-08-03T10:34:30.626Z,7192
2018-08-03T10:35:40.753Z,7976
2018-08-03T10:36:50.601Z,7936
2018-08-03T10:38:00.451Z,7696
2018-08-03T10:39:10.057Z,7788
2018-08-03T10:40:19.345Z,7416
2018-08-03T10:41:29.476Z,7244
2018-08-03T10:42:39.109Z,7200
2018-08-03T10:43:48.726Z,7080
2018-08-03T10:44:58.304Z,6572
2018-08-03T10:46:07.890Z,6612
2018-08-03T10:47:17.671Z,6940
2018-08-03T10:48:27.271Z,7124
2018-08-03T10:49:36.573Z,7248
2018-08-03T10:50:46.692Z,7324
2018-08-03T10:51:56.543Z,7004
2018-08-03T10:53:06.410Z,6732
2018-08-03T10:54:15.990Z,6492
2018-08-03T10:55:25.571Z,6696
2018-08-03T10:56:35.420Z,6880
2018-08-03T10:57:45.002Z,6856
2018-08-03T10:58:54.318Z,6668
2018-08-03T11:00:03.907Z,6680
2018-08-03T11:01:14.078Z,6748
2018-08-03T11:02:24.016Z,7004
2018-08-03T11:03:33.601Z,7140
2018-08-03T11:04:43.182Z,7064
2018-08-03T11:05:53.034Z,6780
2018-08-03T11:07:03.161Z,6852
2018-08-03T11:08:12.477Z,7036
2018-08-03T11:09:21.782Z,7444
2018-08-03T11:10:31.090Z,7744
2018-08-03T11:11:41.206Z,7912
2018-08-03T11:12:51.053Z,7368
2018-08-03T11:14:01.250Z,7140
2018-08-03T11:15:11.510Z,7048
2018-08-03T11:16:21.359Z,7360
2018-08-03T11:17:31.500Z,8052
2018-08-03T11:18:41.354Z,8280
2018-08-03T11:19:50.928Z,9012
2018-08-03T11:21:01.055Z,9444
2018-08-03T11:22:10.364Z,9688
2018-08-03T11:23:19.405Z,9508
2018-08-03T11:24:29.370Z,9172
2018-08-03T11:25:39.502Z,9044
2018-08-03T11:26:48.868Z,9156
2018-08-03T11:27:58.717Z,9304
2018-08-03T11:29:08.032Z,9492
2018-08-03T11:30:17.617Z,9804
2018-08-03T11:31:27.746Z,9840
2018-08-03T11:32:37.869Z,9704
2018-08-03T11:33:47.721Z,9676
2018-08-03T11:34:57.839Z,9720
2018-08-03T11:36:07.689Z,9988
2018-08-03T11:37:16.999Z,10512
2018-08-03T11:38:26.581Z,11400
2018-08-03T11:39:36.165Z,11380
2018-08-03T11:40:46.171Z,11048
2018-08-03T11:41:56.426Z,11308
2018-08-03T11:43:06.019Z,10852
2018-08-03T11:44:16.146Z,9196
2018-08-03T11:45:26.005Z,8248
2018-08-03T11:46:35.584Z,7976
2018-08-03T11:47:45.442Z,7784
2018-08-03T11:48:55.300Z,7448
2018-08-03T11:50:04.610Z,7556
2018-08-03T11:51:14.195Z,7900
2018-08-03T11:52:24.049Z,8328
2018-08-03T11:53:33.636Z,8712
2018-08-03T11:54:43.762Z,9812
2018-08-03T11:55:53.390Z,11228
2018-08-03T11:57:03.240Z,11824
2018-08-03T11:58:13.369Z,12156
2018-08-03T11:59:22.956Z,13424
2018-08-03T12:00:32.807Z,14652
2018-08-03T12:01:42.121Z,15848
2018-08-03T12:02:52.276Z,45216
2018-08-03T12:04:02.124Z,64672
2018-08-03T12:05:11.711Z,64896
2018-08-03T12:06:21.604Z,68800
2018-08-03T12:07:30.946Z,62496
2018-08-03T12:08:40.527Z,60480
2018-08-03T12:09:50.399Z,65344
2018-08-03T12:10:59.992Z,71872
2018-08-03T12:12:09.594Z,66944
2018-08-03T12:13:19.180Z,41216
2018-08-03T12:14:29.028Z,35936
2018-08-03T12:15:38.881Z,68800
2018-08-03T12:16:48.464Z,70944
2018-08-03T12:17:58.857Z,66688
2018-08-03T12:19:08.921Z,66880
2018-08-03T12:20:18.785Z,71456
2018-08-03T12:21:28.378Z,68480
2018-08-03T12:22:38.233Z,67968
2018-08-03T12:23:48.653Z,69536
2018-08-03T12:24:58.308Z,68128
2018-08-03T12:26:07.945Z,72672
2018-08-03T12:27:17.802Z,73440
2018-08-03T12:28:27.390Z,74752
2018-08-03T12:29:36.976Z,76512
2018-08-03T12:30:46.568Z,74304
2018-08-03T12:31:56.427Z,61888
2018-08-03T12:33:06.015Z,56416
2018-08-03T12:34:15.345Z,39680
2018-08-03T12:35:24.934Z,26464
2018-08-03T12:36:34.528Z,51296
2018-08-03T12:37:44.131Z,41184
2018-08-03T12:38:53.180Z,15964
2018-08-03T12:40:02.502Z,37568
2018-08-03T12:41:11.823Z,16296
2018-08-03T12:42:21.675Z,62336
2018-08-03T12:43:31.421Z,79744
2018-08-03T12:44:41.283Z,72128
2018-08-03T12:45:51.177Z,73344
2018-08-03T12:47:01.137Z,65440
2018-08-03T12:48:11.088Z,57952
2018-08-03T12:49:20.954Z,58880
2018-08-03T12:50:30.930Z,50336
2018-08-03T12:51:41.412Z,52352
2018-08-03T12:52:51.458Z,47776
2018-08-03T12:54:01.368Z,16716
2018-08-03T12:55:10.688Z,13440
2018-08-03T12:56:20.541Z,13480
2018-08-03T12:57:30.137Z,35840
2018-08-03T12:58:39.992Z,50464
2018-08-03T12:59:49.689Z,53760
2018-08-03T13:00:59.683Z,57056
2018-08-03T13:02:09.272Z,57888
2018-08-03T13:03:18.590Z,60992
2018-08-03T13:04:28.611Z,68032
2018-08-03T13:05:38.218Z,14016
2018-08-03T13:06:48.405Z,15064
2018-08-03T13:07:59.502Z,16784
2018-08-03T13:09:10.133Z,63040
2018-08-03T13:10:20.273Z,69824
2018-08-03T13:11:30.128Z,65600
2018-08-03T13:12:40.257Z,66336
2018-08-03T13:13:50.114Z,64128
2018-08-03T13:15:00.048Z,66432
2018-08-03T13:16:09.704Z,69632
2018-08-03T13:17:18.758Z,62976
2018-08-03T13:18:28.620Z,66592
2018-08-03T13:19:38.745Z,66368
2018-08-03T13:20:48.073Z,54432
2018-08-03T13:21:57.937Z,52096
2018-08-03T13:23:07.270Z,62624
2018-08-03T13:24:16.593Z,69120
2018-08-03T13:25:26.459Z,62976
2018-08-03T13:26:36.050Z,65664
2018-08-03T13:27:46.186Z,67424
2018-08-03T13:28:55.503Z,65376
2018-08-03T13:30:05.096Z,64832
2018-08-03T13:31:14.958Z,66592
2018-08-03T13:32:24.876Z,64960
2018-08-03T13:33:34.201Z,64160
2018-08-03T13:34:43.522Z,60672
2018-08-03T13:35:53.383Z,61568
2018-08-03T13:37:02.984Z,42400
2018-08-03T13:38:12.576Z,26208
2018-08-03T13:39:22.170Z,67872
2018-08-03T13:40:32.026Z,68512
2018-08-03T13:41:41.887Z,63136
2018-08-03T13:42:52.028Z,20640
2018-08-03T13:44:01.899Z,65632
2018-08-03T13:45:12.031Z,66752
2018-08-03T13:46:22.215Z,65760
2018-08-03T13:47:31.533Z,67328
2018-08-03T13:48:41.396Z,67104
2018-08-03T13:49:51.250Z,66336
2018-08-03T13:51:00.580Z,68704
2018-08-03T13:52:10.174Z,65952
2018-08-03T13:53:19.530Z,65792
2018-08-03T13:54:29.123Z,67904
2018-08-03T13:55:38.984Z,63264
2018-08-03T13:56:48.042Z,65984
2018-08-03T13:57:58.162Z,66912
2018-08-03T13:59:07.818Z,63232
2018-08-03T14:00:17.682Z,61920
2018-08-03T14:01:27.273Z,61920
2018-08-03T14:02:37.407Z,61824
2018-08-03T14:03:47.284Z,64416
2018-08-03T14:04:56.918Z,63040
2018-08-03T14:06:06.798Z,66368
2018-08-03T14:07:16.666Z,65184
2018-08-03T14:08:26.525Z,63776
2018-08-03T14:09:36.121Z,64864
2018-08-03T14:10:45.986Z,63168
2018-08-03T14:11:55.308Z,60832
2018-08-03T14:13:04.896Z,64672
2018-08-03T14:14:15.036Z,67424
2018-08-03T14:15:24.351Z,65344
2018-08-03T14:16:34.220Z,64576
2018-08-03T14:17:44.098Z,67680
2018-08-03T14:18:53.418Z,66368
2018-08-03T14:20:03.559Z,64128
2018-08-03T14:21:13.425Z,66464
2018-08-03T14:22:23.443Z,64960
2018-08-03T14:23:32.765Z,64992
2018-08-03T14:24:42.629Z,64512
2018-08-03T14:25:52.489Z,69888
2018-08-03T14:27:02.076Z,70496
2018-08-03T14:28:12.204Z,68192
2018-08-03T14:29:21.793Z,64416
2018-08-03T14:30:31.657Z,62464
2018-08-03T14:31:42.022Z,64608
2018-08-03T14:32:52.278Z,61472
2018-08-03T14:34:02.149Z,61632
2018-08-03T14:35:11.478Z,62528
2018-08-03T14:36:21.343Z,60832
2018-08-03T14:37:31.206Z,63040
2018-08-03T14:38:41.073Z,62240
2018-08-03T14:39:50.665Z,59264
2018-08-03T14:41:00.259Z,59968
2018-08-03T14:42:09.860Z,60576
2018-08-03T14:43:18.917Z,61664
2018-08-03T14:44:28.775Z,61984
2018-08-03T14:45:38.917Z,61440
2018-08-03T14:46:49.069Z,63392
2018-08-03T14:47:58.658Z,62976
2018-08-03T14:49:08.545Z,63424
2018-08-03T14:50:18.507Z,62048
2018-08-03T14:51:28.105Z,61440
2018-08-03T14:52:37.429Z,61984
2018-08-03T14:53:47.296Z,61984
2018-08-03T14:54:56.350Z,62336
2018-08-03T14:56:05.941Z,60384
2018-08-03T14:57:15.534Z,60064
2018-08-03T14:58:25.393Z,60864
2018-08-03T14:59:34.979Z,62784
2018-08-03T15:00:44.567Z,62880
2018-08-03T15:01:54.159Z,61120
2018-08-03T15:03:03.748Z,59008
2018-08-03T15:04:13.615Z,60512
2018-08-03T15:05:23.216Z,62112
2018-08-03T15:06:33.347Z,65280
2018-08-03T15:07:43.235Z,65216
2018-08-03T15:08:52.876Z,62464
2018-08-03T15:10:03.012Z,60320
2018-08-03T15:11:12.878Z,60512
2018-08-03T15:12:22.474Z,60768
2018-08-03T15:13:31.793Z,60224
2018-08-03T15:14:41.390Z,60448
2018-08-03T15:15:51.266Z,60256
2018-08-03T15:17:01.123Z,58368
2018-08-03T15:18:11.258Z,56512
2018-08-03T15:19:20.848Z,56544
2018-08-03T15:20:30.174Z,58912
2018-08-03T15:21:40.034Z,58080
2018-08-03T15:22:49.898Z,55712
2018-08-03T15:23:59.490Z,54400
2018-08-03T15:25:08.274Z,55808
2018-08-03T15:26:18.129Z,56288
2018-08-03T15:27:27.994Z,54112
2018-08-03T15:28:37.860Z,53120
2018-08-03T15:29:47.177Z,52960
2018-08-03T15:30:56.279Z,53920
2018-08-03T15:32:05.864Z,53440
2018-08-03T15:33:15.732Z,50464
2018-08-03T15:34:24.782Z,50912
2018-08-03T15:35:34.642Z,52384
2018-08-03T15:36:45.008Z,52672
2018-08-03T15:37:55.247Z,52960
2018-08-03T15:39:04.575Z,53504
2018-08-03T15:40:13.626Z,52960
2018-08-03T15:41:23.488Z,53536
2018-08-03T15:42:33.351Z,52320